Saint-Lin, Canada
Current Conditions -  °F | °C
As of 8:00 PM on Monday 24 Nov 2014 (Local Time) from CYMX Reporting Station
Rain Showers Rain Showers  
Wind Chill: 57°   Ceiling: 7000
Heat Index: 57°   Visibility: 25mi
Dew Point: 48°   Wind: 15mph
Humidity: 72%   Direction: 220°SW
Pressure: 29.33"   Gusts: 26mph
Location:  45.85°N, 73.77°W
Report Text: CYMX 250100Z 22013G23KT 25SM -SHRA BKN070 BKN110 14/09 A2933 RMK AC5AC2 SLP935 DENSITY ALT 800FT
Loading
Personal Weather Stations






























Interactive Weather Map New forecast layout! Learn more

10-Day Weather Forecast

Advertisements
Track Severe Weather on mobile